Wellington, CO

3:27 PM MDT on August 21, 2014 (GMT -0600)
La Luna Dairy | Change Station
CLOSE
Current Station
Personal Weather Station
Location: Wellington, CO
Elevation: 5250 ft
Nearby Weather Stations

Elev 5250 ft 40.72 °N, 105.02 °W | Updated 3 minutes ago

Clear
Clear
78.0 °F
Feels Like 79 °F
N
5.0
Wind Variable Wind from SSE
Gusts 13.0 mph

Today
High -- | Low -- °F
--% Chance of Precip.
Yesterday
High -- | Low -- °F
Precip. -- in
6:16 AM 7:49 PM
Waning Crescent, 12% visible
Pressure 30.05 in
Visibility 10.0 miles
Clouds Clear
Heat Index 79 °F
Dew Point 52 °F
Humidity 41%
Rainfall -999.00 in
Snow Depth Not available.
UV 8 out of 12
Pollen 10.30 out of 12
Ozone Good
Flu Activity Not available.
METAR KFNL 212115Z AUTO 15005KT 10SM CLR 30/08 A3005 RMK AO1

More Conditions Fewer Conditions

Pressure 30.05 in
Visibility 10.0 miles
Clouds Clear
Heat Index 79 °F
Dew Point 52 °F
Humidity 41%
Rainfall -999.00 in
Snow Depth Not available.
UV 8 out of 12
Pollen 10.30 out of 12
Ozone Good
Flu Activity Not available.
METAR KFNL 212115Z AUTO 15005KT 10SM CLR 30/08 A3005 RMK AO1

More Conditions Fewer Conditions

Nowcast | as of 3:13 PM MDT on August 21, 2014

A few thunderstorms will continue over eastern Larimer County to the north of Fort Collins and in northwest Weld County between Wellington and Hereford. Expect rainfall amounts less than a quarter of an inch and gusty winds up to 30 mph near the showers.

×

10-Day Weather Forecast

Almanac

Astronomy

Aug. 21, 2014 Rise Set
Actual Time 6:16 AM MDT 7:49 PM MDT
Civil Twilight 5:47 AM MDT 8:18 PM MDT
Nautical Twilight 5:12 AM MDT 8:52 PM MDT
Astronomical Twilight 4:35 AM MDT 9:29 PM MDT
Moon 2:48 AM MDT 5:20 PM MDT
Length of Visible Light 14h 30m
Length of Day
13h 33m
Tomorrow will be 2m 28s shorter.
Waning Crescent, 12% of the Moon is Illuminated
Today
Waning Crescent
Aug 25
New
Sep 2
First Quarter
Sep 8
Full
Sep 15
Last Quarter

Today's Extremes

State Highs State Lows

Community

WunderPhotos

Upload Photos

1,746,021 photos uploaded!

WunderBlogs® & News

Nearby

Air Quality

  Air Quality AQ Index Pollutant
Yesterday Moderate
OZONE
Current Good
OZONE
Thursday Good
PM2.5
Thursday Good
OZONE
Friday Good
PM2.5
Friday Good
OZONE

Snow Depth

Station Depth Elevation
Lake Irene 0 in 10700 ft
Wild Basin 0 in 9560 ft
Rawah 9 in 9020 ft
Willow Creek Pass 0 in 9540 ft
Berthoud Summit 0 in 11300 ft

Earthquake Activity

City Distance Mag. Time & Date
No recent earthquake activity has been reported nearby.
Minimum magnitude displayed is 2.5.

Coastal Water Temperatures

Place Temperature
No Stations Reporting

Nearby Weather Stations